sensor_id;sensor_type;location;lat;lon;timestamp;pressure;altitude;pressure_sealevel;temperature;humidity
6899;BME280;3488;42.616;23.350;2023-04-09T00:00:11;62489.34;;;4.77;100.00
6899;BME280;3488;42.616;23.350;2023-04-09T00:02:39;62484.25;;;4.74;100.00
6899;BME280;3488;42.616;23.350;2023-04-09T00:05:07;62490.44;;;4.81;100.00
6899;BME280;3488;42.616;23.350;2023-04-09T00:07:35;62493.97;;;4.82;100.00
6899;BME280;3488;42.616;23.350;2023-04-09T00:10:02;62488.38;;;4.79;100.00
6899;BME280;3488;42.616;23.350;2023-04-09T00:12:29;62504.25;;;4.89;100.00
6899;BME280;3488;42.616;23.350;2023-04-09T00:14:57;62507.31;;;4.92;100.00
6899;BME280;3488;42.616;23.350;2023-04-09T00:17:24;62514.63;;;5.04;100.00
6899;BME280;3488;42.616;23.350;2023-04-09T00:19:51;62528.91;;;5.11;100.00
6899;BME280;3488;42.616;23.350;2023-04-09T00:22:18;62530.03;;;5.17;100.00
6899;BME280;3488;42.616;23.350;2023-04-09T00:24:46;62519.19;;;5.04;100.00
6899;BME280;3488;42.616;23.350;2023-04-09T00:27:13;62515.63;;;5.03;100.00
6899;BME280;3488;42.616;23.350;2023-04-09T00:29:40;62529.00;;;5.16;100.00
6899;BME280;3488;42.616;23.350;2023-04-09T00:32:07;62539.22;;;5.21;100.00
6899;BME280;3488;42.616;23.350;2023-04-09T00:34:34;62536.16;;;5.20;100.00
6899;BME280;3488;42.616;23.350;2023-04-09T00:37:03;62515.72;;;5.08;100.00
6899;BME280;3488;42.616;23.350;2023-04-09T00:39:30;62526.44;;;5.13;100.00
6899;BME280;3488;42.616;23.350;2023-04-09T00:41:59;62519.22;;;5.06;100.00
6899;BME280;3488;42.616;23.350;2023-04-09T00:44:27;62535.19;;;5.22;100.00
6899;BME280;3488;42.616;23.350;2023-04-09T00:46:54;62533.63;;;5.20;100.00
6899;BME280;3488;42.616;23.350;2023-04-09T00:49:21;62536.69;;;5.21;100.00
6899;BME280;3488;42.616;23.350;2023-04-09T00:51:51;62529.50;;;5.16;100.00
6899;BME280;3488;42.616;23.350;2023-04-09T00:54:18;62533.56;;;5.18;100.00
6899;BME280;3488;42.616;23.350;2023-04-09T00:56:46;62529.00;;;5.16;100.00
6899;BME280;3488;42.616;23.350;2023-04-09T00:59:14;62548.53;;;5.32;100.00
6899;BME280;3488;42.616;23.350;2023-04-09T01:01:41;62548.09;;;5.37;100.00
6899;BME280;3488;42.616;23.350;2023-04-09T01:04:08;62544.00;;;5.33;100.00
6899;BME280;3488;42.616;23.350;2023-04-09T01:06:41;62536.72;;;5.23;100.00
6899;BME280;3488;42.616;23.350;2023-04-09T01:09:13;62532.63;;;5.19;100.00
6899;BME280;3488;42.616;23.350;2023-04-09T01:11:52;62518.69;;;5.06;100.00
6899;BME280;3488;42.616;23.350;2023-04-09T01:14:31;62511.00;;;4.98;100.00
6899;BME280;3488;42.616;23.350;2023-04-09T01:17:04;62504.34;;;4.94;100.00
6899;BME280;3488;42.616;23.350;2023-04-09T01:19:41;62505.31;;;4.93;100.00
6899;BME280;3488;42.616;23.350;2023-04-09T01:22:23;62494.59;;;4.87;100.00
6899;BME280;3488;42.616;23.350;2023-04-09T01:25:06;62498.63;;;4.86;100.00
6899;BME280;3488;42.616;23.350;2023-04-09T01:27:41;62486.28;;;4.74;100.00
6899;BME280;3488;42.616;23.350;2023-04-09T01:30:13;62488.38;;;4.79;100.00
6899;BME280;3488;42.616;23.350;2023-04-09T01:32:42;62492.97;;;4.81;100.00
6899;BME280;3488;42.616;23.350;2023-04-09T01:35:09;62498.72;;;4.91;100.00
6899;BME280;3488;42.616;23.350;2023-04-09T01:37:37;62491.59;;;4.87;100.00
6899;BME280;3488;42.616;23.350;2023-04-09T01:40:06;62498.06;;;4.83;100.00
6899;BME280;3488;42.616;23.350;2023-04-09T01:42:34;62504.25;;;4.89;100.00
6899;BME280;3488;42.616;23.350;2023-04-09T01:45:04;62501.09;;;4.84;100.00
6899;BME280;3488;42.616;23.350;2023-04-09T01:47:33;62477.00;;;4.65;100.00
6899;BME280;3488;42.616;23.350;2023-04-09T01:50:01;62469.88;;;4.60;100.00
6899;BME280;3488;42.616;23.350;2023-04-09T01:52:29;62471.41;;;4.62;100.00
6899;BME280;3488;42.616;23.350;2023-04-09T01:54:55;62473.38;;;4.59;100.00
6899;BME280;3488;42.616;23.350;2023-04-09T01:57:23;62453.81;;;4.40;100.00
6899;BME280;3488;42.616;23.350;2023-04-09T01:59:50;62459.63;;;4.53;100.00
6899;BME280;3488;42.616;23.350;2023-04-09T02:02:22;62461.00;;;4.47;100.00
6899;BME280;3488;42.616;23.350;2023-04-09T02:04:57;62459.44;;;4.45;100.00
6899;BME280;3488;42.616;23.350;2023-04-09T02:07:32;62448.69;;;4.37;100.00
6899;BME280;3488;42.616;23.350;2023-04-09T02:10:02;62446.59;;;4.33;100.00
6899;BME280;3488;42.616;23.350;2023-04-09T02:12:32;62440.94;;;4.27;100.00
6899;BME280;3488;42.616;23.350;2023-04-09T02:15:02;62435.38;;;4.27;100.00
6899;BME280;3488;42.616;23.350;2023-04-09T02:17:29;62432.22;;;4.21;100.00
6899;BME280;3488;42.616;23.350;2023-04-09T02:19:58;62431.22;;;4.20;100.00
6899;BME280;3488;42.616;23.350;2023-04-09T02:22:25;62409.66;;;4.02;100.00
6899;BME280;3488;42.616;23.350;2023-04-09T02:24:53;62399.31;;;3.89;100.00
6899;BME280;3488;42.616;23.350;2023-04-09T02:27:20;62410.59;;;3.98;100.00
6899;BME280;3488;42.616;23.350;2023-04-09T02:29:47;62409.59;;;3.99;100.00
6899;BME280;3488;42.616;23.350;2023-04-09T02:32:14;62414.63;;;3.99;100.00
6899;BME280;3488;42.616;23.350;2023-04-09T02:34:42;62414.13;;;3.99;100.00
6899;BME280;3488;42.616;23.350;2023-04-09T02:37:11;62410.66;;;4.00;100.00
6899;BME280;3488;42.616;23.350;2023-04-09T02:39:38;62404.00;;;3.96;100.00
6899;BME280;3488;42.616;23.350;2023-04-09T02:42:06;62401.94;;;3.94;100.00
6899;BME280;3488;42.616;23.350;2023-04-09T02:44:33;62405.44;;;3.93;100.00
6899;BME280;3488;42.616;23.350;2023-04-09T02:47:00;62401.94;;;3.94;100.00
6899;BME280;3488;42.616;23.350;2023-04-09T02:49:27;62396.63;;;3.82;100.00
6899;BME280;3488;42.616;23.350;2023-04-09T02:51:54;62396.69;;;3.84;100.00
6899;BME280;3488;42.616;23.350;2023-04-09T02:54:23;62382.41;;;3.75;100.00
6899;BME280;3488;42.616;23.350;2023-04-09T02:56:49;62393.63;;;3.81;100.00
6899;BME280;3488;42.616;23.350;2023-04-09T02:59:16;62395.19;;;3.85;100.00
6899;BME280;3488;42.616;23.350;2023-04-09T03:01:43;62395.72;;;3.86;100.00
6899;BME280;3488;42.616;23.350;2023-04-09T03:04:10;62391.09;;;3.81;100.00
6899;BME280;3488;42.616;23.350;2023-04-09T03:06:37;62385.97;;;3.76;100.00
6899;BME280;3488;42.616;23.350;2023-04-09T03:09:05;62374.13;;;3.65;100.00
6899;BME280;3488;42.616;23.350;2023-04-09T03:11:33;62390.56;;;3.81;100.00
6899;BME280;3488;42.616;23.350;2023-04-09T03:14:00;62376.69;;;3.67;100.00
6899;BME280;3488;42.616;23.350;2023-04-09T03:16:27;62356.63;;;3.47;100.00
6899;BME280;3488;42.616;23.350;2023-04-09T03:18:54;62334.03;;;3.25;100.00
6899;BME280;3488;42.616;23.350;2023-04-09T03:21:21;62350.47;;;3.41;100.00
6899;BME280;3488;42.616;23.350;2023-04-09T03:23:48;62351.50;;;3.42;100.00
6899;BME280;3488;42.616;23.350;2023-04-09T03:26:16;62344.75;;;3.33;100.00
6899;BME280;3488;42.616;23.350;2023-04-09T03:28:44;62354.53;;;3.43;100.00
6899;BME280;3488;42.616;23.350;2023-04-09T03:31:11;62354.00;;;3.42;100.00
6899;BME280;3488;42.616;23.350;2023-04-09T03:33:38;62346.91;;;3.40;100.00
6899;BME280;3488;42.616;23.350;2023-04-09T03:36:05;62355.03;;;3.43;100.00
6899;BME280;3488;42.616;23.350;2023-04-09T03:38:33;62364.84;;;3.55;100.00
6899;BME280;3488;42.616;23.350;2023-04-09T03:41:01;62368.97;;;3.60;100.00
6899;BME280;3488;42.616;23.350;2023-04-09T03:43:28;62371.03;;;3.62;100.00
6899;BME280;3488;42.616;23.350;2023-04-09T03:45:58;62373.56;;;3.62;100.00
6899;BME280;3488;42.616;23.350;2023-04-09T03:48:25;62364.28;;;3.52;100.00
6899;BME280;3488;42.616;23.350;2023-04-09T03:50:52;62372.69;;;3.68;100.00
6899;BME280;3488;42.616;23.350;2023-04-09T03:53:19;62382.84;;;3.73;100.00
6899;BME280;3488;42.616;23.350;2023-04-09T03:55:46;62386.00;;;3.79;100.00
6899;BME280;3488;42.616;23.350;2023-04-09T03:58:13;62388.59;;;3.81;100.00
6899;BME280;3488;42.616;23.350;2023-04-09T04:00:40;62384.97;;;3.78;100.00
6899;BME280;3488;42.616;23.350;2023-04-09T04:03:10;62393.63;;;3.81;100.00
6899;BME280;3488;42.616;23.350;2023-04-09T04:05:38;62402.84;;;3.90;100.00
6899;BME280;3488;42.616;23.350;2023-04-09T04:08:05;62394.56;;;3.80;100.00
6899;BME280;3488;42.616;23.350;2023-04-09T04:10:33;62395.19;;;3.85;100.00
6899;BME280;3488;42.616;23.350;2023-04-09T04:13:00;62401.31;;;3.89;100.00
6899;BME280;3488;42.616;23.350;2023-04-09T04:15:28;62410.66;;;4.00;100.00
6899;BME280;3488;42.616;23.350;2023-04-09T04:17:55;62412.66;;;4.00;100.00
6899;BME280;3488;42.616;23.350;2023-04-09T04:20:23;62416.81;;;4.06;100.00
6899;BME280;3488;42.616;23.350;2023-04-09T04:22:51;62414.28;;;4.06;100.00
6899;BME280;3488;42.616;23.350;2023-04-09T04:25:18;62414.81;;;4.07;100.00
6899;BME280;3488;42.616;23.350;2023-04-09T04:27:46;62418.91;;;4.11;100.00
6899;BME280;3488;42.616;23.350;2023-04-09T04:30:12;62444.59;;;4.33;100.00
6899;BME280;3488;42.616;23.350;2023-04-09T04:32:39;62460.94;;;4.44;100.00
6899;BME280;3488;42.616;23.350;2023-04-09T04:35:07;62464.13;;;4.52;100.00
6899;BME280;3488;42.616;23.350;2023-04-09T04:37:36;62477.47;;;4.63;100.00
6899;BME280;3488;42.616;23.350;2023-04-09T04:40:03;62482.72;;;4.73;100.00
6899;BME280;3488;42.616;23.350;2023-04-09T04:42:31;62490.97;;;4.81;100.00
6899;BME280;3488;42.616;23.350;2023-04-09T04:44:58;62504.84;;;4.95;100.00
6899;BME280;3488;42.616;23.350;2023-04-09T04:47:25;62519.19;;;5.04;100.00
6899;BME280;3488;42.616;23.350;2023-04-09T04:49:53;62529.47;;;5.14;100.00
6899;BME280;3488;42.616;23.350;2023-04-09T04:52:20;62543.84;;;5.25;100.00
6899;BME280;3488;42.616;23.350;2023-04-09T04:54:48;62555.38;;;5.46;100.00
6899;BME280;3488;42.616;23.350;2023-04-09T04:57:15;62572.78;;;5.58;100.00
6899;BME280;3488;42.616;23.350;2023-04-09T04:59:43;62568.19;;;5.56;100.00
6899;BME280;3488;42.616;23.350;2023-04-09T05:02:13;62599.97;;;5.80;100.00
6899;BME280;3488;42.616;23.350;2023-04-09T05:04:40;62600.63;;;5.85;100.00
6899;BME280;3488;42.616;23.350;2023-04-09T05:07:07;62612.53;;;6.00;100.00
6899;BME280;3488;42.616;23.350;2023-04-09T05:09:34;62632.53;;;6.14;100.00
6899;BME280;3488;42.616;23.350;2023-04-09T05:12:02;62661.38;;;6.42;100.00
6899;BME280;3488;42.616;23.350;2023-04-09T05:14:30;62674.91;;;6.60;100.00
6899;BME280;3488;42.616;23.350;2023-04-09T05:16:56;62693.94;;;6.76;100.00
6899;BME280;3488;42.616;23.350;2023-04-09T05:19:24;62712.53;;;6.97;100.00
6899;BME280;3488;42.616;23.350;2023-04-09T05:21:52;62725.94;;;7.10;100.00
6899;BME280;3488;42.616;23.350;2023-04-09T05:24:19;62738.75;;;7.18;100.00
6899;BME280;3488;42.616;23.350;2023-04-09T05:26:47;62747.09;;;7.31;100.00
6899;BME280;3488;42.616;23.350;2023-04-09T05:29:15;62757.94;;;7.41;100.00
6899;BME280;3488;42.616;23.350;2023-04-09T05:31:42;62759.47;;;7.43;100.00
6899;BME280;3488;42.616;23.350;2023-04-09T05:34:10;62769.75;;;7.50;100.00
6899;BME280;3488;42.616;23.350;2023-04-09T05:36:37;62779.03;;;7.59;100.00
6899;BME280;3488;42.616;23.350;2023-04-09T05:39:04;62803.88;;;7.86;100.00
6899;BME280;3488;42.616;23.350;2023-04-09T05:41:31;62805.38;;;7.85;100.00
6899;BME280;3488;42.616;23.350;2023-04-09T05:43:58;62803.88;;;7.86;100.00
6899;BME280;3488;42.616;23.350;2023-04-09T05:46:27;62813.09;;;7.92;100.00
6899;BME280;3488;42.616;23.350;2023-04-09T05:48:55;62813.56;;;7.90;100.00
6899;BME280;3488;42.616;23.350;2023-04-09T05:51:22;62818.84;;;8.00;100.00
6899;BME280;3488;42.616;23.350;2023-04-09T05:53:50;62803.88;;;7.86;100.00
6899;BME280;3488;42.616;23.350;2023-04-09T05:56:16;62802.84;;;7.85;100.00
6899;BME280;3488;42.616;23.350;2023-04-09T05:58:43;62835.78;;;8.12;100.00
6899;BME280;3488;42.616;23.350;2023-04-09T06:01:10;62840.47;;;8.19;100.00
6899;BME280;3488;42.616;23.350;2023-04-09T06:03:39;62853.91;;;8.32;100.00
6899;BME280;3488;42.616;23.350;2023-04-09T06:06:07;62878.72;;;8.56;100.00
6899;BME280;3488;42.616;23.350;2023-04-09T06:08:34;62898.41;;;8.78;100.00
6899;BME280;3488;42.616;23.350;2023-04-09T06:11:02;62915.88;;;8.90;100.00
6899;BME280;3488;42.616;23.350;2023-04-09T06:13:30;62921.66;;;9.00;100.00
6899;BME280;3488;42.616;23.350;2023-04-09T06:15:57;62920.06;;;8.96;100.00
6899;BME280;3488;42.616;23.350;2023-04-09T06:18:24;62939.22;;;9.17;100.00
6899;BME280;3488;42.616;23.350;2023-04-09T06:21:01;62965.03;;;9.40;100.00
6899;BME280;3488;42.616;23.350;2023-04-09T06:23:28;62975.78;;;9.46;100.00
6899;BME280;3488;42.616;23.350;2023-04-09T06:25:56;62986.22;;;9.61;100.00
6899;BME280;3488;42.616;23.350;2023-04-09T06:28:24;62993.41;;;9.65;100.00
6899;BME280;3488;42.616;23.350;2023-04-09T06:30:51;62965.50;;;9.38;100.00
6899;BME280;3488;42.616;23.350;2023-04-09T06:33:19;62944.81;;;9.18;100.00
6899;BME280;3488;42.616;23.350;2023-04-09T06:35:47;62941.25;;;9.17;100.00
6899;BME280;3488;42.616;23.350;2023-04-09T06:38:16;62972.75;;;9.48;100.00
6899;BME280;3488;42.616;23.350;2023-04-09T06:40:45;63005.78;;;9.75;100.00
6899;BME280;3488;42.616;23.350;2023-04-09T06:43:12;63024.47;;;9.98;100.00
6899;BME280;3488;42.616;23.350;2023-04-09T06:45:39;63022.94;;;9.96;100.00
6899;BME280;3488;42.616;23.350;2023-04-09T06:48:07;62966.03;;;9.41;99.86
6899;BME280;3488;42.616;23.350;2023-04-09T06:50:33;62957.25;;;9.32;100.00
6899;BME280;3488;42.616;23.350;2023-04-09T06:53:00;62947.91;;;9.21;100.00
6899;BME280;3488;42.616;23.350;2023-04-09T06:55:29;62922.72;;;9.04;100.00
6899;BME280;3488;42.616;23.350;2023-04-09T06:57:56;62941.19;;;9.14;100.00
6899;BME280;3488;42.616;23.350;2023-04-09T07:00:24;62962.88;;;9.33;100.00
6899;BME280;3488;42.616;23.350;2023-04-09T07:02:52;62973.25;;;9.46;100.00
6899;BME280;3488;42.616;23.350;2023-04-09T07:05:20;63014.66;;;9.88;100.00
6899;BME280;3488;42.616;23.350;2023-04-09T07:07:47;63034.25;;;10.05;100.00
6899;BME280;3488;42.616;23.350;2023-04-09T07:10:14;63031.72;;;10.05;99.32
6899;BME280;3488;42.616;23.350;2023-04-09T07:12:42;63032.25;;;10.05;99.37
6899;BME280;3488;42.616;23.350;2023-04-09T07:15:09;63019.28;;;9.90;97.30
6899;BME280;3488;42.616;23.350;2023-04-09T07:17:36;62989.31;;;9.64;99.18
6899;BME280;3488;42.616;23.350;2023-04-09T07:20:04;63009.44;;;9.81;100.00
6899;BME280;3488;42.616;23.350;2023-04-09T07:22:31;63035.81;;;10.06;98.40
6899;BME280;3488;42.616;23.350;2023-04-09T07:24:58;63028.00;;;9.96;95.66
6899;BME280;3488;42.616;23.350;2023-04-09T07:27:26;62998.56;;;9.70;95.32
6899;BME280;3488;42.616;23.350;2023-04-09T07:29:57;62980.53;;;9.55;96.68
6899;BME280;3488;42.616;23.350;2023-04-09T07:32:25;62992.94;;;9.67;96.07
6899;BME280;3488;42.616;23.350;2023-04-09T07:34:53;63005.34;;;9.79;96.92
6899;BME280;3488;42.616;23.350;2023-04-09T07:37:20;62992.41;;;9.67;98.36
6899;BME280;3488;42.616;23.350;2023-04-09T07:39:48;62996.50;;;9.68;99.08
6899;BME280;3488;42.616;23.350;2023-04-09T07:42:16;63016.72;;;9.90;100.00
6899;BME280;3488;42.616;23.350;2023-04-09T07:44:43;63037.31;;;10.05;99.30
6899;BME280;3488;42.616;23.350;2023-04-09T07:47:12;63045.22;;;10.20;98.28
6899;BME280;3488;42.616;23.350;2023-04-09T07:49:38;63062.78;;;10.35;96.00
6899;BME280;3488;42.616;23.350;2023-04-09T07:52:06;63059.66;;;10.32;95.23
6899;BME280;3488;42.616;23.350;2023-04-09T07:54:33;63043.03;;;10.11;94.49
6899;BME280;3488;42.616;23.350;2023-04-09T07:57:01;63021.84;;;9.93;96.52
6899;BME280;3488;42.616;23.350;2023-04-09T07:59:28;63008.44;;;9.82;97.99
6899;BME280;3488;42.616;23.350;2023-04-09T08:01:56;63020.28;;;9.91;98.22
6899;BME280;3488;42.616;23.350;2023-04-09T08:04:24;63022.97;;;9.99;98.24
6899;BME280;3488;42.616;23.350;2023-04-09T08:06:53;63041.53;;;10.12;95.62
6899;BME280;3488;42.616;23.350;2023-04-09T08:09:20;63023.91;;;9.95;97.13
6899;BME280;3488;42.616;23.350;2023-04-09T08:11:48;63030.03;;;9.96;97.88
6899;BME280;3488;42.616;23.350;2023-04-09T08:14:16;63041.09;;;10.16;97.14
6899;BME280;3488;42.616;23.350;2023-04-09T08:16:44;63082.41;;;10.52;95.10
6899;BME280;3488;42.616;23.350;2023-04-09T08:19:12;63126.38;;;10.94;93.80
6899;BME280;3488;42.616;23.350;2023-04-09T08:21:41;63144.41;;;11.04;89.04
6899;BME280;3488;42.616;23.350;2023-04-09T08:24:08;63140.94;;;11.11;89.27
6899;BME280;3488;42.616;23.350;2023-04-09T08:26:36;63087.16;;;10.61;92.23
6899;BME280;3488;42.616;23.350;2023-04-09T08:29:03;63091.75;;;10.63;89.45
6899;BME280;3488;42.616;23.350;2023-04-09T08:31:30;63089.13;;;10.58;92.11
6899;BME280;3488;42.616;23.350;2023-04-09T08:33:57;63097.91;;;10.67;90.65
6899;BME280;3488;42.616;23.350;2023-04-09T08:36:24;63134.75;;;11.07;89.42
6899;BME280;3488;42.616;23.350;2023-04-09T08:38:53;63090.19;;;10.62;89.38
6899;BME280;3488;42.616;23.350;2023-04-09T08:41:22;63070.97;;;10.38;93.00
6899;BME280;3488;42.616;23.350;2023-04-09T08:43:50;63028.63;;;10.02;94.32
6899;BME280;3488;42.616;23.350;2023-04-09T08:46:18;63027.53;;;9.98;96.33
6899;BME280;3488;42.616;23.350;2023-04-09T08:48:47;63049.78;;;10.20;93.78
6899;BME280;3488;42.616;23.350;2023-04-09T08:51:15;63025.47;;;9.96;94.11
6899;BME280;3488;42.616;23.350;2023-04-09T08:53:43;63017.13;;;9.83;97.97
6899;BME280;3488;42.616;23.350;2023-04-09T08:56:13;63028.16;;;10.04;97.07
6899;BME280;3488;42.616;23.350;2023-04-09T08:58:42;63036.34;;;10.07;95.44
6899;BME280;3488;42.616;23.350;2023-04-09T09:01:20;63026.50;;;9.97;96.03
6899;BME280;3488;42.616;23.350;2023-04-09T09:03:56;63008.41;;;9.80;97.37
6899;BME280;3488;42.616;23.350;2023-04-09T09:06:26;62991.84;;;9.64;97.67
6899;BME280;3488;42.616;23.350;2023-04-09T09:09:05;63031.16;;;10.02;97.73
6899;BME280;3488;42.616;23.350;2023-04-09T09:11:34;63046.69;;;10.17;97.04
6899;BME280;3488;42.616;23.350;2023-04-09T09:14:04;63060.66;;;10.30;94.33
6899;BME280;3488;42.616;23.350;2023-04-09T09:16:33;63054.38;;;10.19;91.65
6899;BME280;3488;42.616;23.350;2023-04-09T09:19:05;63059.09;;;10.29;93.35
6899;BME280;3488;42.616;23.350;2023-04-09T09:21:32;63055.53;;;10.28;92.99
6899;BME280;3488;42.616;23.350;2023-04-09T09:24:01;63058.03;;;10.25;92.91
6899;BME280;3488;42.616;23.350;2023-04-09T09:26:29;63042.03;;;10.12;94.21
6899;BME280;3488;42.616;23.350;2023-04-09T09:28:59;63056.56;;;10.29;94.34
6899;BME280;3488;42.616;23.350;2023-04-09T09:31:30;63053.94;;;10.24;94.94
6899;BME280;3488;42.616;23.350;2023-04-09T09:34:11;63076.19;;;10.45;93.57
6899;BME280;3488;42.616;23.350;2023-04-09T09:36:38;63101.06;;;10.72;94.99
6899;BME280;3488;42.616;23.350;2023-04-09T09:39:05;63105.22;;;10.76;90.09
6899;BME280;3488;42.616;23.350;2023-04-09T09:41:35;63122.28;;;10.93;89.26
6899;BME280;3488;42.616;23.350;2023-04-09T09:44:04;63162.13;;;11.29;87.38
6899;BME280;3488;42.616;23.350;2023-04-09T09:46:34;63166.81;;;11.36;87.53
6899;BME280;3488;42.616;23.350;2023-04-09T09:49:03;63174.59;;;11.43;86.83
6899;BME280;3488;42.616;23.350;2023-04-09T09:51:31;63207.72;;;11.73;84.92
6899;BME280;3488;42.616;23.350;2023-04-09T09:53:59;63232.53;;;11.95;83.42
6899;BME280;3488;42.616;23.350;2023-04-09T09:56:30;63235.69;;;12.00;79.37
6899;BME280;3488;42.616;23.350;2023-04-09T09:59:09;63193.72;;;11.59;80.26
6899;BME280;3488;42.616;23.350;2023-04-09T10:01:39;63194.22;;;11.60;83.80
6899;BME280;3488;42.616;23.350;2023-04-09T10:04:08;63212.34;;;11.75;80.27
6899;BME280;3488;42.616;23.350;2023-04-09T10:06:39;63216.47;;;11.79;81.12
6899;BME280;3488;42.616;23.350;2023-04-09T10:09:09;63219.16;;;11.87;79.88
6899;BME280;3488;42.616;23.350;2023-04-09T10:11:36;63250.69;;;12.12;80.78
6899;BME280;3488;42.616;23.350;2023-04-09T10:14:08;63256.00;;;12.25;75.90
6899;BME280;3488;42.616;23.350;2023-04-09T10:16:36;63282.94;;;12.51;75.68
6899;BME280;3488;42.616;23.350;2023-04-09T10:19:03;63307.22;;;12.69;69.34
6899;BME280;3488;42.616;23.350;2023-04-09T10:21:35;63348.66;;;13.05;69.87
6899;BME280;3488;42.616;23.350;2023-04-09T10:24:05;63325.94;;;12.90;71.61
6899;BME280;3488;42.616;23.350;2023-04-09T10:26:33;63321.19;;;12.80;67.13
6899;BME280;3488;42.616;23.350;2023-04-09T10:29:04;63343.63;;;13.10;65.56
6899;BME280;3488;42.616;23.350;2023-04-09T10:31:50;63370.56;;;13.33;61.91
6899;BME280;3488;42.616;23.350;2023-04-09T10:34:20;63346.66;;;13.08;64.03
6899;BME280;3488;42.616;23.350;2023-04-09T10:36:52;63330.59;;;12.95;66.71
6899;BME280;3488;42.616;23.350;2023-04-09T10:39:25;63297.44;;;12.65;59.72
6899;BME280;3488;42.616;23.350;2023-04-09T10:41:55;63295.78;;;12.56;64.08
6899;BME280;3488;42.616;23.350;2023-04-09T10:44:23;63296.34;;;12.59;62.21
6899;BME280;3488;42.616;23.350;2023-04-09T10:46:53;63294.88;;;12.65;61.66
6899;BME280;3488;42.616;23.350;2023-04-09T10:49:22;63339.88;;;13.01;61.75
6899;BME280;3488;42.616;23.350;2023-04-09T10:51:51;63340.94;;;13.02;59.44
6899;BME280;3488;42.616;23.350;2023-04-09T10:54:40;63323.22;;;12.80;59.39
6899;BME280;3488;42.616;23.350;2023-04-09T10:57:16;63349.25;;;13.10;58.50
6899;BME280;3488;42.616;23.350;2023-04-09T10:59:44;63297.88;;;12.58;57.93
6899;BME280;3488;42.616;23.350;2023-04-09T11:05:26;63308.25;;;12.70;60.70
6899;BME280;3488;42.616;23.350;2023-04-09T11:08:00;63312.94;;;12.75;57.75
6899;BME280;3488;42.616;23.350;2023-04-09T11:10:30;63311.97;;;12.79;57.62
6899;BME280;3488;42.616;23.350;2023-04-09T11:12:57;63344.13;;;13.10;57.73
6899;BME280;3488;42.616;23.350;2023-04-09T11:15:24;63309.31;;;12.71;57.37
6899;BME280;3488;42.616;23.350;2023-04-09T11:17:51;63274.63;;;12.43;58.36
6899;BME280;3488;42.616;23.350;2023-04-09T11:20:20;63260.63;;;12.27;60.40
6899;BME280;3488;42.616;23.350;2023-04-09T11:22:49;63257.97;;;12.22;60.67
6899;BME280;3488;42.616;23.350;2023-04-09T11:25:18;63252.28;;;12.16;63.75
6899;BME280;3488;42.616;23.350;2023-04-09T11:27:45;63233.19;;;12.03;64.09
6899;BME280;3488;42.616;23.350;2023-04-09T11:30:12;63244.03;;;12.11;63.24
6899;BME280;3488;42.616;23.350;2023-04-09T11:32:39;63272.97;;;12.34;62.88
6899;BME280;3488;42.616;23.350;2023-04-09T11:35:10;63267.81;;;12.31;62.80
6899;BME280;3488;42.616;23.350;2023-04-09T11:37:39;63237.78;;;12.05;62.64
6899;BME280;3488;42.616;23.350;2023-04-09T11:40:13;63210.81;;;11.76;64.91
6899;BME280;3488;42.616;23.350;2023-04-09T11:42:41;63208.72;;;11.72;66.11
6899;BME280;3488;42.616;23.350;2023-04-09T11:45:09;63198.28;;;11.59;64.76
6899;BME280;3488;42.616;23.350;2023-04-09T11:47:36;63189.56;;;11.55;62.15
6899;BME280;3488;42.616;23.350;2023-04-09T11:50:06;63168.81;;;11.33;66.11
6899;BME280;3488;42.616;23.350;2023-04-09T11:52:33;63165.25;;;11.34;66.87
6899;BME280;3488;42.616;23.350;2023-04-09T11:55:01;63194.78;;;11.63;66.17
6899;BME280;3488;42.616;23.350;2023-04-09T11:57:39;63189.09;;;11.57;66.58
6899;BME280;3488;42.616;23.350;2023-04-09T12:00:09;63185.47;;;11.54;67.64
6899;BME280;3488;42.616;23.350;2023-04-09T12:02:38;63174.00;;;11.38;69.12
6899;BME280;3488;42.616;23.350;2023-04-09T12:05:08;63171.50;;;11.40;70.83
6899;BME280;3488;42.616;23.350;2023-04-09T12:07:36;63173.53;;;11.42;68.57
6899;BME280;3488;42.616;23.350;2023-04-09T12:10:04;63170.97;;;11.40;67.37
6899;BME280;3488;42.616;23.350;2023-04-09T12:12:40;63159.06;;;11.28;65.80
6899;BME280;3488;42.616;23.350;2023-04-09T12:15:21;63196.81;;;11.62;64.17
6899;BME280;3488;42.616;23.350;2023-04-09T12:17:49;63196.38;;;11.65;63.78
6899;BME280;3488;42.616;23.350;2023-04-09T12:20:35;63221.16;;;11.84;63.92
6899;BME280;3488;42.616;23.350;2023-04-09T12:23:04;63207.72;;;11.73;63.57
6899;BME280;3488;42.616;23.350;2023-04-09T12:25:34;63244.97;;;12.07;62.37
6899;BME280;3488;42.616;23.350;2023-04-09T12:28:03;63259.00;;;12.23;62.35
6899;BME280;3488;42.616;23.350;2023-04-09T12:30:31;63275.09;;;12.38;62.21
6899;BME280;3488;42.616;23.350;2023-04-09T12:32:58;63307.75;;;12.70;60.37
6899;BME280;3488;42.616;23.350;2023-04-09T12:35:25;63333.66;;;12.95;56.54
6899;BME280;3488;42.616;23.350;2023-04-09T12:37:52;63308.31;;;12.73;59.35
6899;BME280;3488;42.616;23.350;2023-04-09T12:40:20;63317.63;;;12.82;58.74
6899;BME280;3488;42.616;23.350;2023-04-09T12:42:47;63346.63;;;13.05;58.86
6899;BME280;3488;42.616;23.350;2023-04-09T12:45:17;63363.81;;;13.27;56.28
6899;BME280;3488;42.616;23.350;2023-04-09T12:47:44;63359.72;;;13.28;55.77
6899;BME280;3488;42.616;23.350;2023-04-09T12:50:12;63362.75;;;13.23;55.62
6899;BME280;3488;42.616;23.350;2023-04-09T12:52:40;63373.09;;;13.33;55.31
6899;BME280;3488;42.616;23.350;2023-04-09T12:55:09;63343.56;;;13.07;56.86
6899;BME280;3488;42.616;23.350;2023-04-09T12:57:38;63351.38;;;13.17;57.71
6899;BME280;3488;42.616;23.350;2023-04-09T13:00:06;63337.81;;;12.99;59.42
6899;BME280;3488;42.616;23.350;2023-04-09T13:02:35;63308.25;;;12.70;59.19
6899;BME280;3488;42.616;23.350;2023-04-09T13:05:02;63292.75;;;12.58;56.27
6899;BME280;3488;42.616;23.350;2023-04-09T13:07:30;63293.66;;;12.51;57.11
6899;BME280;3488;42.616;23.350;2023-04-09T13:09:57;63296.88;;;12.59;59.55
6899;BME280;3488;42.616;23.350;2023-04-09T13:12:24;63311.94;;;12.76;58.26
6899;BME280;3488;42.616;23.350;2023-04-09T13:14:53;63325.94;;;12.90;55.52
6899;BME280;3488;42.616;23.350;2023-04-09T13:17:21;63331.56;;;12.91;57.07
6899;BME280;3488;42.616;23.350;2023-04-09T13:19:50;63345.59;;;13.04;54.12
6899;BME280;3488;42.616;23.350;2023-04-09T13:22:17;63324.34;;;12.86;55.57